메인 페이지
METAR-TAF:

METAR-TAF

공항 :

뉴올리언스, 루이지애나, 미국

위도: 29-59-34N, 경도: 090-15-03W, 고도: 1m

현재 날씨관측

예보는 34분 전, 21:53시(UTC)에 발표되었습니다.
북북서8kt
온도 10°C
습도 46%
기압 1024 hPa
시정: 16.1km
고도 25000ft 상공 구름 조금

METAR: KMSY 202153Z 34008KT 10SM FEW250 10/M01 A3024 RMK AO2 SLP244 T01001006

시각: 16:27 (22:27 UTC)

예보

예보는 4 시간 58분 전, 17:29시(UTC)에 발표되었습니다.
예보 대상 시간: 20일 18시부터 21일 24시까지 (UTC)
15kt, 순간 최대 풍속 19kt
시정: 10km
고도 2500ft 상공 구름 보통
21일 0100시부터 (UTC)
6kt
시정: 10km
맑음
21일 0400시부터 (UTC)
북북동6kt
시정: 10km
맑음
21일 0800시부터 (UTC)
동북동6kt
시정: 10km
맑음
21일 1600시부터 (UTC)
8kt
시정: 10km
고도 25000ft 상공 구름 조금

TAF: KMSY 201729Z 2018/2124 36015G19KT P6SM SCT025 FM210100 35006KT P6SM SKC FM210400 03006KT P6SM SKC FM210800 06006KT P6SM SKC FM211600 09008KT P6SM FEW250

4,000개 이상의 공항 관측 자료 및 예보 (METAR 및 TAF 보고).

지도상에서 검색 가능한 기상관측소가 노란 점과 빨간 점으로 표시되어 있습니다.

기상관측소 명을 보려면 표시 위로 마우스를 이동하세요.

날씨 관측과 예보를 보려면 클릭하세요.

지도 변경 : 확대하려면 엑스 표시가 있는 녹색 버튼, 축소하려면 빼기 표시가 있는 녹색 버튼, 다음 페이지의 지도를 보려면 녹색 화살표를 클릭하세요.


METAR-TAF: